createdAt,value
2022-09-06T00:02:19.067Z,21.19
2022-09-06T00:04:45.469Z,21.21
2022-09-06T00:07:11.981Z,21.12
2022-09-06T00:09:38.376Z,21.06
2022-09-06T00:12:04.945Z,20.92
2022-09-06T00:14:31.346Z,20.88
2022-09-06T00:16:57.737Z,20.83
2022-09-06T00:19:24.142Z,21.06
2022-09-06T00:21:50.547Z,20.87
2022-09-06T00:24:16.933Z,20.84
2022-09-06T00:26:43.369Z,20.88
2022-09-06T00:29:09.859Z,20.81
2022-09-06T00:31:36.354Z,20.88
2022-09-06T00:34:02.893Z,20.98
2022-09-06T00:36:29.316Z,21.02
2022-09-06T00:38:56.400Z,21.05
2022-09-06T00:41:22.793Z,20.64
2022-09-06T00:43:49.224Z,21.02
2022-09-06T00:46:18.495Z,20.96
2022-09-06T00:48:45.486Z,21.16
2022-09-06T00:51:13.302Z,21.10
2022-09-06T00:53:39.965Z,20.90
2022-09-06T00:56:06.537Z,21.10
2022-09-06T00:58:33.127Z,21.03
2022-09-06T01:00:59.584Z,21.07
2022-09-06T01:03:26.357Z,21.03
2022-09-06T01:06:14.690Z,20.95
2022-09-06T01:09:05.746Z,20.85
2022-09-06T01:11:56.493Z,20.87
2022-09-06T01:14:44.689Z,20.87
2022-09-06T01:17:19.053Z,20.86
2022-09-06T01:20:27.172Z,20.76
2022-09-06T01:23:06.963Z,20.45
2022-09-06T01:25:59.916Z,20.65
2022-09-06T01:28:45.365Z,20.82
2022-09-06T01:31:48.382Z,20.69
2022-09-06T01:34:21.741Z,20.49
2022-09-06T01:37:09.004Z,20.41
2022-09-06T01:39:37.393Z,20.61
2022-09-06T01:42:15.621Z,20.56
2022-09-06T01:44:53.649Z,20.61
2022-09-06T01:47:25.133Z,20.52
2022-09-06T01:50:24.109Z,20.77
2022-09-06T01:52:56.319Z,20.61
2022-09-06T01:56:07.706Z,20.72
2022-09-06T01:58:59.981Z,20.70
2022-09-06T02:01:49.577Z,20.77
2022-09-06T02:04:34.055Z,20.60
2022-09-06T02:07:03.366Z,20.49
2022-09-06T02:09:34.985Z,20.51
2022-09-06T02:12:02.567Z,20.44
2022-09-06T02:14:36.206Z,20.57
2022-09-06T02:17:05.060Z,20.55
2022-09-06T02:19:43.259Z,20.35
2022-09-06T02:22:12.181Z,20.41
2022-09-06T02:24:40.650Z,20.46
2022-09-06T02:27:07.672Z,20.39
2022-09-06T02:29:34.842Z,20.23
2022-09-06T02:32:08.354Z,20.39
2022-09-06T02:34:37.960Z,20.50
2022-09-06T02:37:05.037Z,20.50
2022-09-06T02:39:31.475Z,20.44
2022-09-06T02:41:58.485Z,20.35
2022-09-06T02:44:24.881Z,20.38
2022-09-06T02:46:55.053Z,20.34
2022-09-06T02:49:23.864Z,20.45
2022-09-06T02:51:50.849Z,20.47
2022-09-06T02:54:17.229Z,20.45
2022-09-06T02:56:43.627Z,20.44
2022-09-06T02:59:10.028Z,20.54
2022-09-06T03:01:36.451Z,20.37
2022-09-06T03:04:03.051Z,20.29
2022-09-06T03:06:30.397Z,20.38
2022-09-06T03:08:56.832Z,20.21
2022-09-06T03:11:23.223Z,20.47
2022-09-06T03:13:51.021Z,20.41
2022-09-06T03:16:17.490Z,20.33
2022-09-06T03:18:43.992Z,20.21
2022-09-06T03:21:10.620Z,20.18
2022-09-06T03:23:38.844Z,20.21
2022-09-06T03:26:06.300Z,19.91
2022-09-06T03:28:32.703Z,20.12
2022-09-06T03:30:59.213Z,19.85
2022-09-06T03:33:25.748Z,19.92
2022-09-06T03:35:57.615Z,19.86
2022-09-06T03:38:25.126Z,19.84
2022-09-06T03:40:52.863Z,19.71
2022-09-06T03:43:19.823Z,19.76
2022-09-06T03:45:48.130Z,19.75
2022-09-06T03:48:15.388Z,19.72
2022-09-06T03:50:46.173Z,19.58
2022-09-06T03:53:12.920Z,19.54
2022-09-06T03:55:39.454Z,19.49
2022-09-06T03:58:05.876Z,19.38
2022-09-06T04:00:33.533Z,19.43
2022-09-06T04:03:01.930Z,19.55
2022-09-06T04:05:28.490Z,19.66
2022-09-06T04:07:54.923Z,19.69
2022-09-06T04:10:21.428Z,19.61
2022-09-06T04:12:47.926Z,19.43
2022-09-06T04:15:14.371Z,19.31
2022-09-06T04:17:45.093Z,19.30
2022-09-06T04:20:12.466Z,19.22
2022-09-06T04:22:39.098Z,19.21
2022-09-06T04:25:06.027Z,19.27
2022-09-06T04:27:32.817Z,19.18
2022-09-06T04:29:59.222Z,19.13
2022-09-06T04:32:25.604Z,19.11
2022-09-06T04:34:51.987Z,19.18
2022-09-06T04:37:20.012Z,19.06
2022-09-06T04:39:47.064Z,18.95
2022-09-06T04:42:13.487Z,18.86
2022-09-06T04:44:39.929Z,18.86
2022-09-06T04:47:12.600Z,18.91
2022-09-06T04:49:38.992Z,18.94
2022-09-06T04:52:05.393Z,18.82
2022-09-06T04:54:31.893Z,18.75
2022-09-06T04:56:58.299Z,18.69
2022-09-06T04:59:24.865Z,18.69
2022-09-06T05:01:51.494Z,18.72
2022-09-06T05:04:17.960Z,18.81
2022-09-06T05:06:44.921Z,18.80
2022-09-06T05:09:11.779Z,18.70
2022-09-06T05:11:38.173Z,18.58
2022-09-06T05:14:04.739Z,18.63
2022-09-06T05:16:31.213Z,18.73
2022-09-06T05:18:57.769Z,18.71
2022-09-06T05:21:24.216Z,18.73
2022-09-06T05:23:52.596Z,18.71
2022-09-06T05:26:20.735Z,18.75
2022-09-06T05:28:47.312Z,18.80
2022-09-06T05:31:25.918Z,18.82
2022-09-06T05:33:53.495Z,18.82
2022-09-06T05:36:20.502Z,18.94
2022-09-06T05:38:46.892Z,18.99
2022-09-06T05:41:13.322Z,18.95
2022-09-06T05:43:39.882Z,19.02
2022-09-06T05:46:06.408Z,19.13
2022-09-06T05:48:36.788Z,19.18
2022-09-06T05:51:06.284Z,19.23
2022-09-06T05:53:36.560Z,19.27
2022-09-06T05:56:03.873Z,19.32
2022-09-06T05:58:30.588Z,19.32
2022-09-06T06:01:31.282Z,19.34
2022-09-06T06:03:58.882Z,19.42
2022-09-06T06:06:27.457Z,19.35
2022-09-06T06:08:54.379Z,19.43
2022-09-06T06:11:20.944Z,19.38
2022-09-06T06:13:47.364Z,19.41
2022-09-06T06:16:15.890Z,19.38
2022-09-06T06:18:42.417Z,19.42
2022-09-06T06:21:09.479Z,19.41
2022-09-06T06:23:36.116Z,19.43
2022-09-06T06:26:02.751Z,19.50
2022-09-06T06:28:29.229Z,19.55
2022-09-06T06:30:55.703Z,19.62
2022-09-06T06:33:22.141Z,19.65
2022-09-06T06:36:01.672Z,19.58
2022-09-06T06:38:37.475Z,19.49
2022-09-06T06:41:06.979Z,19.62
2022-09-06T06:43:37.502Z,19.64
2022-09-06T06:46:11.033Z,19.62
2022-09-06T06:48:39.664Z,19.64
2022-09-06T06:51:06.279Z,19.76
2022-09-06T06:53:32.844Z,19.83
2022-09-06T06:55:59.410Z,19.89
2022-09-06T06:58:25.953Z,20.00
2022-09-06T07:00:52.417Z,20.09
2022-09-06T07:03:18.944Z,20.04
2022-09-06T07:08:33.634Z,20.10
2022-09-06T07:11:00.180Z,20.32
2022-09-06T07:13:26.639Z,20.47
2022-09-06T07:15:53.079Z,20.48
2022-09-06T07:18:19.559Z,20.51
2022-09-06T07:26:27.947Z,20.88
2022-09-06T07:28:55.650Z,21.04
2022-09-06T07:34:08.768Z,21.31
2022-09-06T07:36:35.323Z,21.45
2022-09-06T07:39:01.791Z,21.59
2022-09-06T07:41:28.194Z,21.75
2022-09-06T07:43:54.759Z,21.85
2022-09-06T07:46:22.041Z,21.82
2022-09-06T07:48:49.636Z,22.02
2022-09-06T07:51:18.050Z,22.15
2022-09-06T07:53:50.550Z,22.33
2022-09-06T07:56:20.310Z,22.55
2022-09-06T07:58:46.805Z,22.70
2022-09-06T08:01:16.030Z,22.77
2022-09-06T08:03:42.580Z,22.76
2022-09-06T08:06:09.913Z,22.99
2022-09-06T08:11:27.350Z,23.27
2022-09-06T08:13:55.548Z,23.44
2022-09-06T08:16:25.200Z,23.58
2022-09-06T08:18:53.478Z,23.74
2022-09-06T08:21:20.852Z,23.84
2022-09-06T08:23:48.938Z,23.84
2022-09-06T08:26:16.678Z,24.04
2022-09-06T08:28:43.430Z,24.20
2022-09-06T08:31:15.034Z,24.28
2022-09-06T08:33:42.426Z,24.48
2022-09-06T08:36:09.607Z,24.38
2022-09-06T08:38:36.360Z,24.53
2022-09-06T08:41:18.185Z,24.71
2022-09-06T08:47:01.176Z,24.78
2022-09-06T08:49:31.354Z,24.83
2022-09-06T08:52:29.970Z,25.21
2022-09-06T08:55:02.025Z,25.24
2022-09-06T08:57:40.609Z,25.50
2022-09-06T09:00:11.304Z,25.63
2022-09-06T09:02:57.459Z,25.88
2022-09-06T09:05:28.379Z,25.98
2022-09-06T09:08:03.838Z,26.09
2022-09-06T09:10:32.464Z,26.13
2022-09-06T09:13:01.324Z,26.25
2022-09-06T09:15:28.819Z,26.39
2022-09-06T09:17:55.517Z,26.46
2022-09-06T09:20:22.048Z,26.76
2022-09-06T09:22:48.651Z,26.90
2022-09-06T09:25:24.706Z,26.73
2022-09-06T09:27:58.240Z,27.07
2022-09-06T09:33:21.906Z,27.39
2022-09-06T09:35:48.638Z,27.60
2022-09-06T09:38:42.592Z,27.41
2022-09-06T09:41:11.003Z,27.74
2022-09-06T09:43:42.312Z,27.85
2022-09-06T09:46:15.960Z,28.11
2022-09-06T09:49:09.575Z,27.73
2022-09-06T09:51:41.736Z,27.77
2022-09-06T09:54:10.616Z,27.86
2022-09-06T09:56:36.889Z,27.42
2022-09-06T09:59:08.330Z,27.26
2022-09-06T10:01:34.764Z,27.17
2022-09-06T10:09:38.893Z,27.24
2022-09-06T10:12:05.608Z,27.39
2022-09-06T10:14:40.708Z,27.55
2022-09-06T10:17:07.225Z,27.67
2022-09-06T10:19:40.985Z,26.95
2022-09-06T10:22:23.720Z,26.84
2022-09-06T10:25:03.371Z,26.97
2022-09-06T10:27:30.980Z,27.28
2022-09-06T10:30:02.164Z,27.54
2022-09-06T10:32:34.550Z,27.54
2022-09-06T10:35:25.025Z,27.43
2022-09-06T10:38:14.377Z,27.38
2022-09-06T10:41:29.503Z,27.23
2022-09-06T10:44:15.986Z,27.23
2022-09-06T10:46:44.917Z,27.33
2022-09-06T10:49:15.900Z,26.90
2022-09-06T10:51:46.797Z,26.84
2022-09-06T10:54:14.092Z,26.84
2022-09-06T10:56:47.560Z,26.78
2022-09-06T10:59:41.918Z,27.06
2022-09-06T11:02:18.895Z,27.20
2022-09-06T11:07:37.949Z,27.10
2022-09-06T11:10:30.834Z,26.45
2022-09-06T11:13:05.208Z,26.94
2022-09-06T11:15:37.579Z,26.83
2022-09-06T11:18:11.953Z,26.56
2022-09-06T11:20:42.487Z,26.45
2022-09-06T11:23:25.886Z,26.75
2022-09-06T11:26:14.769Z,26.80
2022-09-06T11:28:47.160Z,27.02
2022-09-06T11:34:20.160Z,26.88
2022-09-06T11:36:48.681Z,27.08
2022-09-06T11:42:44.125Z,26.90
2022-09-06T11:45:10.413Z,26.87
2022-09-06T11:47:39.852Z,26.77
2022-09-06T11:50:21.521Z,26.71
2022-09-06T11:53:12.906Z,27.01
2022-09-06T11:55:41.354Z,26.64
2022-09-06T11:58:19.998Z,26.92
2022-09-06T12:01:07.209Z,26.93
2022-09-06T12:06:32.407Z,26.81
2022-09-06T12:08:59.394Z,26.66
2022-09-06T12:11:30.486Z,27.13
2022-09-06T12:14:03.008Z,27.14
2022-09-06T12:16:55.640Z,26.76
2022-09-06T12:19:44.468Z,26.60
2022-09-06T12:22:26.418Z,26.69
2022-09-06T12:25:01.685Z,27.02
2022-09-06T12:27:52.601Z,27.08
2022-09-06T12:30:33.102Z,26.83
2022-09-06T12:33:00.295Z,26.48
2022-09-06T12:38:23.929Z,26.44
2022-09-06T12:40:58.434Z,26.57
2022-09-06T12:43:25.212Z,26.32
2022-09-06T12:45:52.476Z,26.43
2022-09-06T12:48:29.756Z,26.59
2022-09-06T12:51:02.423Z,26.73
2022-09-06T12:53:31.417Z,27.12
2022-09-06T12:56:14.406Z,26.97
2022-09-06T12:58:40.859Z,27.33
2022-09-06T13:01:31.252Z,27.60
2022-09-06T13:04:11.909Z,27.85
2022-09-06T13:06:42.312Z,28.14
2022-09-06T13:09:12.150Z,28.26
2022-09-06T13:11:43.523Z,28.26
2022-09-06T13:14:17.920Z,28.50
2022-09-06T13:16:50.348Z,28.91
2022-09-06T13:19:18.960Z,29.02
2022-09-06T13:21:46.895Z,29.25
2022-09-06T13:24:35.314Z,30.08
2022-09-06T13:27:25.647Z,31.00
2022-09-06T13:29:56.723Z,31.85
2022-09-06T13:32:23.355Z,32.22
2022-09-06T13:34:56.628Z,32.59
2022-09-06T13:37:28.783Z,33.01
2022-09-06T13:39:57.443Z,33.41
2022-09-06T13:42:24.011Z,33.88
2022-09-06T13:44:51.108Z,33.62
2022-09-06T13:47:17.527Z,33.92
2022-09-06T13:49:43.931Z,35.13
2022-09-06T13:52:10.465Z,35.63
2022-09-06T13:54:36.901Z,36.24
2022-09-06T13:57:03.408Z,35.77
2022-09-06T13:59:30.429Z,34.70
2022-09-06T14:02:09.709Z,33.91
2022-09-06T14:04:36.903Z,34.04
2022-09-06T14:07:04.117Z,33.95
2022-09-06T14:09:30.653Z,34.21
2022-09-06T14:11:57.095Z,33.82
2022-09-06T14:14:24.379Z,34.87
2022-09-06T14:16:50.920Z,34.46
2022-09-06T14:19:17.352Z,34.80
2022-09-06T14:21:43.775Z,34.80
2022-09-06T14:24:10.238Z,34.45
2022-09-06T14:26:36.850Z,33.93
2022-09-06T14:29:03.653Z,33.32
2022-09-06T14:31:32.450Z,32.97
2022-09-06T14:33:58.984Z,33.08
2022-09-06T14:36:29.136Z,34.61
2022-09-06T14:38:57.574Z,34.02
2022-09-06T14:41:24.021Z,34.31
2022-09-06T14:43:52.434Z,34.55
2022-09-06T14:46:20.134Z,34.34
2022-09-06T14:48:46.934Z,34.24
2022-09-06T14:51:20.769Z,34.49
2022-09-06T14:53:48.790Z,34.54
2022-09-06T14:56:15.764Z,34.85
2022-09-06T14:58:42.802Z,35.53
2022-09-06T15:01:14.426Z,35.01
2022-09-06T15:03:42.883Z,35.58
2022-09-06T15:06:10.508Z,35.77
2022-09-06T15:08:37.911Z,34.38
2022-09-06T15:11:07.946Z,35.24
2022-09-06T15:13:37.011Z,34.87
2022-09-06T15:16:05.106Z,35.00
2022-09-06T15:18:31.810Z,35.15
2022-09-06T15:20:58.221Z,35.56
2022-09-06T15:23:27.262Z,35.67
2022-09-06T15:25:54.127Z,35.36
2022-09-06T15:28:20.628Z,34.48
2022-09-06T15:30:47.638Z,33.63
2022-09-06T15:33:14.980Z,32.86
2022-09-06T15:35:44.810Z,31.79
2022-09-06T15:38:11.902Z,31.72
2022-09-06T15:40:38.850Z,31.46
2022-09-06T15:43:05.352Z,31.48
2022-09-06T15:45:47.147Z,31.67
2022-09-06T15:48:15.824Z,32.41
2022-09-06T15:50:51.303Z,32.99
2022-09-06T15:53:18.710Z,33.49
2022-09-06T15:55:57.275Z,32.92
2022-09-06T15:58:25.123Z,32.99
2022-09-06T16:01:06.763Z,32.95
2022-09-06T16:03:36.931Z,33.20
2022-09-06T16:09:01.627Z,32.59
2022-09-06T16:11:29.723Z,32.18
2022-09-06T16:13:56.348Z,31.55
2022-09-06T16:16:23.095Z,30.72
2022-09-06T16:18:49.637Z,30.20
2022-09-06T16:21:23.781Z,30.08
2022-09-06T16:23:55.097Z,29.65
2022-09-06T16:26:22.748Z,29.44
2022-09-06T16:28:50.439Z,29.38
2022-09-06T16:31:17.487Z,29.13
2022-09-06T16:33:45.470Z,29.10
2022-09-06T16:36:13.793Z,29.07
2022-09-06T16:38:40.502Z,29.00
2022-09-06T16:41:17.169Z,28.90
2022-09-06T16:43:44.680Z,28.77
2022-09-06T16:46:12.017Z,28.67
2022-09-06T16:48:40.505Z,28.60
2022-09-06T16:51:15.858Z,28.24
2022-09-06T16:53:43.208Z,27.89
2022-09-06T16:56:11.204Z,28.08
2022-09-06T16:58:39.040Z,27.98
2022-09-06T17:01:07.736Z,28.13
2022-09-06T17:03:34.967Z,27.93
2022-09-06T17:06:01.421Z,27.94
2022-09-06T17:08:27.948Z,27.91
2022-09-06T17:10:54.777Z,27.82
2022-09-06T17:13:21.179Z,27.72
2022-09-06T17:16:13.535Z,27.49
2022-09-06T17:18:39.970Z,27.34
2022-09-06T17:21:07.409Z,27.26
2022-09-06T17:23:35.324Z,27.14
2022-09-06T17:26:01.997Z,27.19
2022-09-06T17:28:28.737Z,27.11
2022-09-06T17:30:55.328Z,27.03
2022-09-06T17:33:23.654Z,26.99
2022-09-06T17:35:50.053Z,26.90
2022-09-06T17:38:16.454Z,26.93
2022-09-06T17:40:43.399Z,26.81
2022-09-06T17:43:09.975Z,26.83
2022-09-06T17:45:42.409Z,26.67
2022-09-06T17:48:09.088Z,26.58
2022-09-06T17:50:35.483Z,26.51
2022-09-06T17:53:02.127Z,26.42
2022-09-06T17:55:29.116Z,26.34
2022-09-06T17:57:56.507Z,26.38
2022-09-06T18:00:24.012Z,26.34
2022-09-06T18:02:50.420Z,26.32
2022-09-06T18:05:16.994Z,26.32
2022-09-06T18:07:43.446Z,26.29
2022-09-06T18:10:10.555Z,26.20
2022-09-06T18:12:36.957Z,26.15
2022-09-06T18:15:03.478Z,26.06
2022-09-06T18:17:30.553Z,26.00
2022-09-06T18:19:57.620Z,25.91
2022-09-06T18:22:24.348Z,25.95
2022-09-06T18:24:55.024Z,25.94
2022-09-06T18:27:24.029Z,25.84
2022-09-06T18:29:50.453Z,25.76
2022-09-06T18:32:16.844Z,25.84
2022-09-06T18:34:43.250Z,25.71
2022-09-06T18:37:09.631Z,25.48
2022-09-06T18:39:36.094Z,25.46
2022-09-06T18:42:06.991Z,25.41
2022-09-06T18:44:34.244Z,25.33
2022-09-06T18:47:02.429Z,25.33
2022-09-06T18:49:30.000Z,25.36
2022-09-06T18:51:56.485Z,25.33
2022-09-06T18:54:23.013Z,25.27
2022-09-06T18:56:50.102Z,25.24
2022-09-06T18:59:16.908Z,25.22
2022-09-06T19:01:43.489Z,25.13
2022-09-06T19:04:10.739Z,25.14
2022-09-06T19:06:39.352Z,25.09
2022-09-06T19:09:08.575Z,25.03
2022-09-06T19:11:35.279Z,25.05
2022-09-06T19:14:02.263Z,25.01
2022-09-06T19:16:29.435Z,24.69
2022-09-06T19:18:56.744Z,24.64
2022-09-06T19:21:27.679Z,24.59
2022-09-06T19:24:02.496Z,24.48
2022-09-06T19:26:31.596Z,24.35
2022-09-06T19:29:00.105Z,24.29
2022-09-06T19:31:29.879Z,24.24
2022-09-06T19:33:56.488Z,24.15
2022-09-06T19:36:23.794Z,24.14
2022-09-06T19:39:06.338Z,24.04
2022-09-06T19:41:35.921Z,23.94
2022-09-06T19:44:05.324Z,23.51
2022-09-06T19:46:32.052Z,23.57
2022-09-06T19:48:58.748Z,23.58
2022-09-06T19:51:25.537Z,23.61
2022-09-06T19:53:54.061Z,23.56
2022-09-06T19:56:32.544Z,23.42
2022-09-06T19:59:00.998Z,23.44
2022-09-06T20:01:29.574Z,23.36
2022-09-06T20:03:56.713Z,23.43
2022-09-06T20:06:23.324Z,23.33
2022-09-06T20:08:54.961Z,23.22
2022-09-06T20:11:22.646Z,23.32
2022-09-06T20:13:49.185Z,23.22
2022-09-06T20:16:16.258Z,23.33
2022-09-06T20:18:42.848Z,23.34
2022-09-06T20:21:09.935Z,23.10
2022-09-06T20:23:36.658Z,23.06
2022-09-06T20:26:13.373Z,22.96
2022-09-06T20:28:39.864Z,22.97
2022-09-06T20:31:10.821Z,23.03
2022-09-06T20:33:37.759Z,22.88
2022-09-06T20:36:06.433Z,23.04
2022-09-06T20:38:34.695Z,22.99
2022-09-06T20:41:16.178Z,22.86
2022-09-06T20:43:42.703Z,22.55
2022-09-06T20:46:19.641Z,22.45
2022-09-06T20:48:46.753Z,22.46
2022-09-06T20:51:18.555Z,22.42
2022-09-06T20:53:51.453Z,22.35
2022-09-06T20:56:23.880Z,22.27
2022-09-06T20:58:55.497Z,22.30
2022-09-06T21:01:26.872Z,22.27
2022-09-06T21:03:56.062Z,22.24
2022-09-06T21:06:23.279Z,22.26
2022-09-06T21:08:49.762Z,22.23
2022-09-06T21:11:16.345Z,22.11
2022-09-06T21:13:42.780Z,21.94
2022-09-06T21:16:09.534Z,21.96
2022-09-06T21:18:36.219Z,21.89
2022-09-06T21:21:07.788Z,21.82
2022-09-06T21:23:36.826Z,21.82
2022-09-06T21:26:10.973Z,21.77
2022-09-06T21:28:39.717Z,21.74
2022-09-06T21:31:17.743Z,21.68
2022-09-06T21:33:49.565Z,21.70
2022-09-06T21:36:18.266Z,21.66
2022-09-06T21:38:46.743Z,21.70
2022-09-06T21:41:14.704Z,21.62
2022-09-06T21:43:41.471Z,21.68
2022-09-06T21:46:14.458Z,21.72
2022-09-06T21:48:43.663Z,21.69
2022-09-06T21:51:13.492Z,21.67
2022-09-06T21:53:40.681Z,21.62
2022-09-06T21:56:07.361Z,20.78
2022-09-06T21:58:34.046Z,21.77
2022-09-06T22:01:01.412Z,21.66
2022-09-06T22:03:29.856Z,21.48
2022-09-06T22:05:56.276Z,21.21
2022-09-06T22:08:23.447Z,21.03
2022-09-06T22:10:50.215Z,20.97
2022-09-06T22:13:18.396Z,20.77
2022-09-06T22:15:44.980Z,20.75
2022-09-06T22:18:11.968Z,20.64
2022-09-06T22:20:38.645Z,20.53
2022-09-06T22:23:06.448Z,20.53
2022-09-06T22:25:33.747Z,20.64
2022-09-06T22:28:00.505Z,20.57
2022-09-06T22:30:26.964Z,20.46
2022-09-06T22:32:53.848Z,20.35
2022-09-06T22:35:21.095Z,20.40
2022-09-06T22:37:47.486Z,20.17
2022-09-06T22:40:14.039Z,19.88
2022-09-06T22:42:40.419Z,19.59
2022-09-06T22:45:07.249Z,18.77
2022-09-06T22:47:33.813Z,18.47
2022-09-06T22:50:00.208Z,18.30
2022-09-06T22:52:26.646Z,18.09
2022-09-06T22:54:53.042Z,17.83
2022-09-06T22:57:19.462Z,17.58
2022-09-06T22:59:45.855Z,17.86
2022-09-06T23:02:12.237Z,17.93
2022-09-06T23:04:38.697Z,17.80
2022-09-06T23:07:05.918Z,17.66
2022-09-06T23:09:32.300Z,17.71
2022-09-06T23:11:58.690Z,17.72
2022-09-06T23:14:27.844Z,17.60
2022-09-06T23:16:54.302Z,17.56
2022-09-06T23:19:20.685Z,17.69
2022-09-06T23:21:47.071Z,17.63
2022-09-06T23:24:13.570Z,17.64
2022-09-06T23:26:39.992Z,17.58
2022-09-06T23:29:07.231Z,17.61
2022-09-06T23:31:33.690Z,17.60
2022-09-06T23:34:01.264Z,17.77
2022-09-06T23:36:28.496Z,17.69
2022-09-06T23:38:55.777Z,17.63
2022-09-06T23:41:22.692Z,17.59
2022-09-06T23:43:49.513Z,17.46
2022-09-06T23:46:16.206Z,17.41
2022-09-06T23:48:43.400Z,17.70
2022-09-06T23:51:10.527Z,17.67
2022-09-06T23:53:37.031Z,17.77
2022-09-06T23:56:03.815Z,17.90
2022-09-06T23:58:30.348Z,17.73
